Time;durP1;ratioP1;P1;durP2;ratioP2;P2;SDS_P1;SDS_P2;PMS_P1;PMS_P2;Temp;Humidity;BMP_temperature;BMP_pressure;BME280_temperature;BME280_humidity;BME280_pressure;Samples;Min_cycle;Max_cycle;Signal;HPM_P1;HPM_P2
2022/03/07 00:01:33;;;;;;;9.90;8.85;;;2.70;83.90;;;;;;5038792;28;20025;-79
2022/03/07 00:03:58;;;;;;;11.13;9.32;;;2.60;84.40;;;;;;5045988;28;20113;-78
2022/03/07 00:06:24;;;;;;;13.73;10.57;;;2.50;85.00;;;;;;5038200;28;20049;-79
2022/03/07 00:08:50;;;;;;;9.57;8.63;;;2.50;85.50;;;;;;5051243;28;20022;-79
2022/03/07 00:11:17;;;;;;;10.63;8.70;;;2.50;86.00;;;;;;5053520;28;20021;-79
2022/03/07 00:13:43;;;;;;;10.15;8.77;;;2.50;86.30;;;;;;5043471;28;20415;-82
2022/03/07 00:16:09;;;;;;;10.70;8.75;;;2.50;86.70;;;;;;5040052;28;20036;-81
2022/03/07 00:18:36;;;;;;;9.18;8.27;;;2.40;86.80;;;;;;5042311;28;20018;-78
2022/03/07 00:21:02;;;;;;;10.25;9.23;;;2.50;87.00;;;;;;5038592;28;20026;-79
2022/03/07 00:23:28;;;;;;;10.35;9.20;;;2.40;87.20;;;;;;5031214;28;20021;-78
2022/03/07 00:25:53;;;;;;;8.93;8.02;;;2.40;87.40;;;;;;5033069;28;20610;-77
2022/03/07 00:28:19;;;;;;;9.48;8.57;;;2.40;87.80;;;;;;5034611;28;20036;-78
2022/03/07 00:30:44;;;;;;;9.43;8.50;;;2.30;87.90;;;;;;5033085;28;20018;-77
2022/03/07 00:33:10;;;;;;;9.73;8.73;;;2.40;87.80;;;;;;5042665;28;20049;-77
2022/03/07 00:35:36;;;;;;;10.75;9.32;;;2.40;87.70;;;;;;5032741;28;20453;-78
2022/03/07 00:38:02;;;;;;;10.52;8.90;;;2.40;88.00;;;;;;5034681;28;20087;-77
2022/03/07 00:40:27;;;;;;;11.23;9.35;;;2.40;89.20;;;;;;5035879;28;20025;-81
2022/03/07 00:42:53;;;;;;;9.60;8.30;;;2.40;90.30;;;;;;5036534;28;20044;-79
2022/03/07 00:45:18;;;;;;;9.35;8.35;;;2.50;89.50;;;;;;5036670;28;20029;-78
2022/03/07 00:47:44;;;;;;;10.13;7.85;;;2.50;88.90;;;;;;5025252;28;20591;-79
2022/03/07 00:50:10;;;;;;;8.95;7.55;;;2.20;89.20;;;;;;5048097;28;20017;-77
2022/03/07 00:52:36;;;;;;;9.27;8.38;;;2.20;89.40;;;;;;5049740;28;20033;-79
2022/03/07 00:55:02;;;;;;;9.20;8.05;;;2.20;89.80;;;;;;5046535;28;20030;-79
2022/03/07 00:57:28;;;;;;;8.95;7.97;;;2.20;89.90;;;;;;5035395;28;20551;-78
2022/03/07 00:59:55;;;;;;;10.13;8.43;;;2.10;90.00;;;;;;5035134;28;20029;-80
2022/03/07 01:02:20;;;;;;;9.82;8.70;;;2.00;90.10;;;;;;5051585;28;20425;-77
2022/03/07 01:04:46;;;;;;;9.15;8.25;;;2.00;90.40;;;;;;5034053;28;20036;-80
2022/03/07 01:07:12;;;;;;;10.45;8.50;;;2.10;90.30;;;;;;5034096;28;20026;-80
2022/03/07 01:09:37;;;;;;;9.80;8.82;;;2.10;90.40;;;;;;5043315;28;20030;-78
2022/03/07 01:12:03;;;;;;;8.50;7.70;;;2.00;90.30;;;;;;5047647;28;20089;-80
2022/03/07 01:14:29;;;;;;;9.70;8.25;;;1.90;90.30;;;;;;5033909;28;20104;-80
2022/03/07 01:16:54;;;;;;;9.82;7.78;;;2.00;90.50;;;;;;5029834;28;20030;-79
2022/03/07 01:19:20;;;;;;;9.23;7.82;;;2.00;90.50;;;;;;5034609;28;20040;-78
2022/03/07 01:21:45;;;;;;;9.10;7.70;;;2.00;90.60;;;;;;5033678;28;20057;-80
2022/03/07 01:24:11;;;;;;;8.82;7.97;;;1.80;90.80;;;;;;5036609;28;20030;-77
2022/03/07 01:26:38;;;;;;;10.45;8.48;;;1.80;90.90;;;;;;5036745;28;20034;-80
2022/03/07 01:29:04;;;;;;;9.40;7.78;;;1.80;91.10;;;;;;5047894;28;20037;-79
2022/03/07 01:31:30;;;;;;;10.02;7.95;;;1.80;91.20;;;;;;5051766;28;20018;-78
2022/03/07 01:33:55;;;;;;;9.20;8.25;;;1.80;91.20;;;;;;5028372;28;20366;-80
2022/03/07 01:36:22;;;;;;;9.57;7.95;;;1.80;91.30;;;;;;5028474;28;20021;-80
2022/03/07 01:38:48;;;;;;;8.65;7.88;;;1.70;91.30;;;;;;5035366;28;20109;-80
2022/03/07 01:41:14;;;;;;;8.38;7.57;;;1.70;91.40;;;;;;5035860;28;20385;-79
2022/03/07 01:43:39;;;;;;;9.40;8.07;;;1.70;91.50;;;;;;5036468;28;20017;-79
2022/03/07 01:46:05;;;;;;;8.90;7.90;;;1.70;91.40;;;;;;5034796;28;20038;-79
2022/03/07 01:48:31;;;;;;;8.38;7.57;;;1.60;91.50;;;;;;5044029;28;20026;-79
2022/03/07 01:50:56;;;;;;;10.10;8.63;;;1.50;91.70;;;;;;5033254;28;20516;-80
2022/03/07 01:53:22;;;;;;;8.98;7.30;;;1.50;91.50;;;;;;5028603;28;20398;-79
2022/03/07 01:55:48;;;;;;;8.70;7.90;;;1.50;91.30;;;;;;5052901;28;20033;-77
2022/03/07 01:58:14;;;;;;;9.40;8.10;;;1.60;91.10;;;;;;5049582;28;20029;-78
2022/03/07 02:00:39;;;;;;;8.60;7.72;;;1.50;91.20;;;;;;5049807;28;20010;-78
2022/03/07 02:03:06;;;;;;;8.10;7.30;;;1.50;91.10;;;;;;5053968;28;20045;-78
2022/03/07 02:05:32;;;;;;;7.90;7.10;;;1.40;91.10;;;;;;5070907;28;20060;-77
2022/03/07 02:07:58;;;;;;;8.57;7.68;;;1.30;91.00;;;;;;5047884;28;20103;-78
2022/03/07 02:10:28;;;;;;;8.88;7.93;;;1.20;91.40;;;;;;5021228;28;20026;-78
2022/03/07 02:12:53;;;;;;;8.47;7.67;;;1.30;91.40;;;;;;5036068;28;20034;-78
2022/03/07 02:15:19;;;;;;;11.95;8.93;;;1.20;91.50;;;;;;5053531;28;20040;-78
2022/03/07 02:17:45;;;;;;;8.68;7.15;;;1.20;91.80;;;;;;5060029;28;20040;-78
2022/03/07 02:20:12;;;;;;;8.05;7.25;;;1.10;91.80;;;;;;5073313;28;20025;-78
2022/03/07 02:22:37;;;;;;;8.00;7.05;;;1.10;91.80;;;;;;5058810;28;20060;-78
2022/03/07 02:25:04;;;;;;;11.00;8.63;;;1.00;91.90;;;;;;5058726;28;20021;-77
2022/03/07 02:27:29;;;;;;;8.10;7.22;;;1.00;92.00;;;;;;5058608;28;20026;-78
2022/03/07 02:29:55;;;;;;;9.88;7.90;;;1.00;92.20;;;;;;5052986;28;20040;-78
2022/03/07 02:32:21;;;;;;;8.75;7.95;;;1.00;92.40;;;;;;5066567;28;20081;-79
2022/03/07 02:34:47;;;;;;;10.05;8.32;;;0.90;92.60;;;;;;5059255;28;20021;-78
2022/03/07 02:37:13;;;;;;;10.90;7.70;;;0.90;92.60;;;;;;5073177;28;20018;-78
2022/03/07 02:39:38;;;;;;;9.07;8.18;;;0.80;92.70;;;;;;5056805;28;20026;-79
2022/03/07 02:42:04;;;;;;;9.48;8.50;;;0.80;92.80;;;;;;5029678;28;20084;-79
2022/03/07 02:44:30;;;;;;;9.63;7.70;;;0.70;92.70;;;;;;5043146;28;20080;-77
2022/03/07 02:46:55;;;;;;;9.65;8.75;;;0.70;92.60;;;;;;5075661;28;20035;-79
2022/03/07 02:49:21;;;;;;;9.50;8.50;;;0.60;92.50;;;;;;5058523;28;20029;-77
2022/03/07 02:51:47;;;;;;;10.57;9.57;;;0.50;92.60;;;;;;5058775;28;20048;-77
2022/03/07 02:54:12;;;;;;;9.70;8.75;;;0.50;92.70;;;;;;5054406;28;20016;-76
2022/03/07 02:56:38;;;;;;;9.63;8.63;;;0.40;92.70;;;;;;5052163;28;20090;-77
2022/03/07 02:59:03;;;;;;;9.48;8.55;;;0.40;92.20;;;;;;5055664;28;20018;-78
2022/03/07 03:01:29;;;;;;;11.50;9.15;;;0.50;92.10;;;;;;5047820;28;20030;-78
2022/03/07 03:03:54;;;;;;;11.63;8.63;;;0.50;91.90;;;;;;5049291;28;20056;-79
2022/03/07 03:06:20;;;;;;;11.02;8.77;;;0.50;91.90;;;;;;5022408;28;20026;-79
2022/03/07 03:08:46;;;;;;;9.93;8.98;;;0.50;92.00;;;;;;5031787;28;20026;-79
2022/03/07 03:11:11;;;;;;;10.68;8.77;;;0.50;91.90;;;;;;5049260;28;20029;-78
2022/03/07 03:13:38;;;;;;;9.13;8.20;;;0.40;92.20;;;;;;5033185;28;20037;-77
2022/03/07 03:16:05;;;;;;;10.68;8.95;;;0.30;92.50;;;;;;5036204;28;20029;-77
2022/03/07 03:18:30;;;;;;;10.10;8.65;;;0.30;92.40;;;;;;5037098;28;20421;-78
2022/03/07 03:20:56;;;;;;;10.80;8.52;;;0.30;92.50;;;;;;5034764;28;20029;-79
2022/03/07 03:23:25;;;;;;;9.82;8.70;;;0.20;92.80;;;;;;5037061;28;20104;-79
2022/03/07 03:25:51;;;;;;;10.27;9.23;;;0.20;92.60;;;;;;5051125;28;20026;-79
2022/03/07 03:28:16;;;;;;;11.70;9.70;;;0.10;93.00;;;;;;5038669;28;20024;-79
2022/03/07 03:30:42;;;;;;;9.98;8.43;;;0.20;93.00;;;;;;5040461;28;20018;-79
2022/03/07 03:33:08;;;;;;;9.18;8.25;;;0.00;93.00;;;;;;5021375;28;20065;-79
2022/03/07 03:35:36;;;;;;;9.98;8.98;;;0.00;93.30;;;;;;5049971;28;20084;-78
2022/03/07 03:38:04;;;;;;;12.73;9.07;;;0.10;92.90;;;;;;5048928;28;20038;-78
2022/03/07 03:40:30;;;;;;;10.10;9.10;;;0.20;92.80;;;;;;5036549;28;20029;-78
2022/03/07 03:42:58;;;;;;;10.52;9.32;;;0.10;93.00;;;;;;5038307;28;20029;-79
2022/03/07 03:45:23;;;;;;;10.20;9.07;;;0.00;93.10;;;;;;5037324;28;20490;-79
2022/03/07 03:47:49;;;;;;;9.93;8.93;;;0.10;93.00;;;;;;5044907;28;20018;-78
2022/03/07 03:50:14;;;;;;;11.30;9.70;;;0.00;93.20;;;;;;5029053;28;20021;-78
2022/03/07 03:52:41;;;;;;;10.57;9.48;;;0.00;93.10;;;;;;5033700;28;20028;-78
2022/03/07 03:55:10;;;;;;;10.70;9.60;;;0.10;93.00;;;;;;5036281;28;20037;-77
2022/03/07 03:57:36;;;;;;;10.32;9.30;;;0.10;93.00;;;;;;5050039;28;20029;-79
2022/03/07 04:00:03;;;;;;;10.85;9.60;;;0.10;92.90;;;;;;5034659;28;20049;-78
2022/03/07 04:02:28;;;;;;;10.07;9.07;;;0.10;92.90;;;;;;5027561;28;20026;-79
2022/03/07 04:04:54;;;;;;;11.73;9.82;;;0.10;93.00;;;;;;5028945;28;20032;-78
2022/03/07 04:07:19;;;;;;;11.35;10.00;;;0.10;92.90;;;;;;5034607;28;20040;-79
2022/03/07 04:09:45;;;;;;;10.55;9.38;;;0.20;92.90;;;;;;5035980;28;20049;-79
2022/03/07 04:12:11;;;;;;;11.15;9.63;;;0.10;92.80;;;;;;5036120;28;20040;-79
2022/03/07 04:14:36;;;;;;;11.55;10.15;;;0.10;92.80;;;;;;5036537;28;20024;-78
2022/03/07 04:17:02;;;;;;;10.93;9.82;;;0.10;93.00;;;;;;5051394;28;20025;-78
2022/03/07 04:19:28;;;;;;;11.57;10.20;;;0.00;93.10;;;;;;5036001;28;20029;-78
2022/03/07 04:21:53;;;;;;;11.90;10.65;;;0.10;93.10;;;;;;5052173;28;20041;-79
2022/03/07 04:24:20;;;;;;;12.75;10.68;;;0.00;93.20;;;;;;5034774;28;20036;-79
2022/03/07 04:26:46;;;;;;;12.07;9.32;;;0.00;93.30;;;;;;5026354;28;20025;-79
2022/03/07 04:29:12;;;;;;;17.30;10.43;;;0.00;93.30;;;;;;5032857;28;20506;-79
2022/03/07 04:31:41;;;;;;;11.85;10.20;;;0.00;93.40;;;;;;5035395;28;20450;-78
2022/03/07 04:34:08;;;;;;;12.02;10.40;;;0.00;93.50;;;;;;5034151;28;20087;-78
2022/03/07 04:36:35;;;;;;;11.88;10.60;;;0.00;93.60;;;;;;5048609;28;20049;-79
2022/03/07 04:39:02;;;;;;;13.18;10.77;;;0.00;93.60;;;;;;5033235;28;20029;-79
2022/03/07 04:41:27;;;;;;;11.70;10.50;;;0.00;93.70;;;;;;5035509;28;20072;-79
2022/03/07 04:43:53;;;;;;;12.93;10.60;;;0.10;93.80;;;;;;5036522;28;20398;-79
2022/03/07 04:46:19;;;;;;;16.65;11.82;;;0.00;94.10;;;;;;5035410;28;20116;-79
2022/03/07 04:48:45;;;;;;;11.50;10.20;;;-0.10;94.20;;;;;;5043672;28;20017;-79
2022/03/07 04:51:11;;;;;;;18.27;11.77;;;-0.10;94.50;;;;;;5033927;28;20075;-80
2022/03/07 04:53:36;;;;;;;12.93;10.93;;;0.00;94.50;;;;;;5045232;28;20068;-80
2022/03/07 04:56:03;;;;;;;12.18;10.57;;;0.00;94.50;;;;;;5032434;28;20040;-79
2022/03/07 04:58:29;;;;;;;14.15;11.80;;;0.10;94.50;;;;;;5029806;28;20026;-79
2022/03/07 05:00:55;;;;;;;12.60;11.02;;;0.10;94.50;;;;;;5040279;28;20064;-78
2022/03/07 05:03:21;;;;;;;14.27;11.73;;;0.00;94.90;;;;;;5041623;28;20033;-77
2022/03/07 05:05:48;;;;;;;13.10;11.65;;;0.10;94.90;;;;;;5026143;28;20045;-80
2022/03/07 05:08:13;;;;;;;13.40;10.70;;;0.10;94.90;;;;;;5035822;28;20018;-78
2022/03/07 05:10:39;;;;;;;13.38;11.43;;;-0.20;95.30;;;;;;5042341;28;20026;-80
2022/03/07 05:13:04;;;;;;;13.30;11.48;;;-0.20;95.80;;;;;;5035215;28;20371;-79
2022/03/07 05:15:30;;;;;;;14.63;11.07;;;-0.10;95.70;;;;;;5050512;28;20096;-79
2022/03/07 05:17:56;;;;;;;13.98;11.55;;;0.10;95.70;;;;;;5042713;28;20162;-79
2022/03/07 05:20:23;;;;;;;13.32;11.38;;;0.00;95.80;;;;;;5034991;28;20032;-79
2022/03/07 05:22:48;;;;;;;11.45;10.25;;;0.00;96.10;;;;;;5036860;28;20047;-80
2022/03/07 05:25:15;;;;;;;13.73;11.55;;;0.00;96.30;;;;;;5046785;28;20036;-79
2022/03/07 05:27:41;;;;;;;12.38;10.93;;;0.00;96.60;;;;;;5046934;28;20022;-79
2022/03/07 05:30:09;;;;;;;13.82;11.90;;;0.00;96.90;;;;;;5029665;28;20057;-79
2022/03/07 05:32:35;;;;;;;14.80;12.18;;;0.00;97.30;;;;;;5037130;28;20478;-79
2022/03/07 05:35:01;;;;;;;13.90;11.50;;;0.00;97.50;;;;;;5047907;28;20025;-79
2022/03/07 05:37:26;;;;;;;12.30;11.00;;;0.00;97.80;;;;;;5031024;28;20477;-78
2022/03/07 05:39:52;;;;;;;15.70;10.80;;;0.00;98.00;;;;;;5036283;28;20036;-79
2022/03/07 05:42:18;;;;;;;13.13;11.73;;;0.00;98.20;;;;;;5040328;28;20063;-79
2022/03/07 05:44:44;;;;;;;12.35;10.90;;;0.00;98.30;;;;;;5052847;28;20034;-79
2022/03/07 05:47:09;;;;;;;14.65;11.57;;;-0.10;98.80;;;;;;5051292;28;20029;-79
2022/03/07 05:49:35;;;;;;;12.40;10.98;;;-0.20;99.10;;;;;;5037812;28;20034;-78
2022/03/07 05:52:01;;;;;;;12.98;10.55;;;-0.30;99.40;;;;;;5037547;28;20025;-79
2022/03/07 05:54:27;;;;;;;11.35;10.23;;;-0.20;99.90;;;;;;5028412;28;20079;-78
2022/03/07 05:56:52;;;;;;;13.27;11.32;;;-0.30;99.90;;;;;;5027439;28;20108;-78
2022/03/07 05:59:18;;;;;;;13.07;11.35;;;-0.40;99.90;;;;;;5036153;28;20535;-79
2022/03/07 06:01:43;;;;;;;14.43;11.60;;;-0.50;99.90;;;;;;5038042;28;20035;-80
2022/03/07 06:04:09;;;;;;;14.18;11.20;;;-0.60;99.90;;;;;;5041863;28;20029;-80
2022/03/07 06:06:35;;;;;;;14.25;11.57;;;-0.60;99.90;;;;;;5052382;28;20087;-81
2022/03/07 06:09:01;;;;;;;15.30;12.02;;;-0.60;99.90;;;;;;5055039;28;20025;-80
2022/03/07 06:11:26;;;;;;;14.40;10.85;;;-0.50;99.90;;;;;;5034637;28;20026;-80
2022/03/07 06:13:52;;;;;;;11.95;9.27;;;-0.50;99.90;;;;;;5033962;28;20026;-80
2022/03/07 06:16:17;;;;;;;12.43;10.93;;;-0.50;99.90;;;;;;5036320;28;20026;-79
2022/03/07 06:18:43;;;;;;;12.93;10.63;;;-0.60;99.90;;;;;;5039946;28;20038;-79
2022/03/07 06:21:09;;;;;;;11.38;9.52;;;-0.40;99.90;;;;;;5050541;28;20737;-78
2022/03/07 06:23:36;;;;;;;12.43;10.13;;;-0.30;99.90;;;;;;5036063;28;20029;-78
2022/03/07 06:26:04;;;;;;;11.52;10.10;;;-0.10;99.90;;;;;;5036617;28;20327;-79
2022/03/07 06:28:30;;;;;;;12.23;10.98;;;-0.10;99.90;;;;;;5045810;28;20534;-79
2022/03/07 06:30:55;;;;;;;12.30;9.63;;;-0.30;99.90;;;;;;5053473;28;20060;-80
2022/03/07 06:33:21;;;;;;;9.85;8.85;;;-0.20;99.90;;;;;;5039880;28;20049;-78
2022/03/07 06:35:46;;;;;;;10.75;9.73;;;-0.20;99.90;;;;;;5038158;28;20032;-78
2022/03/07 06:38:12;;;;;;;10.20;8.63;;;-0.20;99.90;;;;;;5032239;28;20033;-78
2022/03/07 06:40:37;;;;;;;11.18;10.00;;;-0.30;99.90;;;;;;5036970;28;20021;-79
2022/03/07 06:43:03;;;;;;;10.93;9.75;;;-0.30;99.90;;;;;;5036751;28;20405;-79
2022/03/07 06:45:30;;;;;;;10.77;9.50;;;-0.30;99.90;;;;;;5052928;28;20026;-78
2022/03/07 06:47:55;;;;;;;14.20;10.50;;;-0.30;99.90;;;;;;5036916;28;20025;-79
2022/03/07 06:50:22;;;;;;;11.85;9.48;;;-0.30;99.90;;;;;;5053245;28;20060;-81
2022/03/07 06:52:48;;;;;;;12.57;10.02;;;0.00;99.90;;;;;;5043227;28;20474;-79
2022/03/07 06:55:13;;;;;;;10.02;8.80;;;-0.10;99.90;;;;;;5033653;28;20062;-79
2022/03/07 06:57:40;;;;;;;10.13;8.52;;;-0.10;99.90;;;;;;5035133;28;20033;-80
2022/03/07 07:00:13;;;;;;;13.40;9.98;;;-0.10;99.90;;;;;;5036410;28;20422;-79
2022/03/07 07:02:39;;;;;;;11.98;9.60;;;0.10;99.90;;;;;;5036960;28;20026;-80
2022/03/07 07:05:06;;;;;;;11.93;9.50;;;0.30;99.90;;;;;;5037666;28;20135;-78
2022/03/07 07:07:32;;;;;;;13.30;9.57;;;0.20;99.90;;;;;;5034907;28;20022;-79
2022/03/07 07:09:57;;;;;;;12.07;9.35;;;0.10;99.90;;;;;;5027772;28;20033;-79
2022/03/07 07:12:23;;;;;;;10.77;9.68;;;0.30;99.90;;;;;;5033600;28;20038;-80
2022/03/07 07:14:48;;;;;;;14.80;9.10;;;0.50;99.90;;;;;;5052960;28;20028;-78
2022/03/07 07:17:15;;;;;;;13.35;9.55;;;0.70;99.80;;;;;;5051380;28;20034;-80
2022/03/07 07:19:40;;;;;;;11.02;9.27;;;0.70;99.50;;;;;;5033555;28;20099;-79
2022/03/07 07:22:06;;;;;;;11.02;8.25;;;0.70;99.50;;;;;;5050850;28;20037;-80
2022/03/07 07:24:31;;;;;;;10.40;7.85;;;0.70;99.40;;;;;;5052410;28;20040;-78
2022/03/07 07:26:57;;;;;;;10.35;8.60;;;0.70;99.40;;;;;;5036223;28;20029;-79
2022/03/07 07:29:23;;;;;;;9.48;8.48;;;0.70;99.50;;;;;;5066025;28;20029;-78
2022/03/07 07:31:51;;;;;;;10.05;8.13;;;0.90;99.10;;;;;;5056698;28;20013;-78
2022/03/07 07:34:17;;;;;;;11.60;8.90;;;0.90;99.00;;;;;;5068808;28;20041;-78
2022/03/07 07:36:43;;;;;;;13.00;8.40;;;1.00;99.00;;;;;;5056671;28;20040;-79
2022/03/07 07:39:08;;;;;;;11.90;8.82;;;1.20;98.70;;;;;;5072187;28;20018;-78
2022/03/07 07:41:34;;;;;;;10.57;8.00;;;1.30;98.10;;;;;;5038802;28;20520;-78
2022/03/07 07:44:00;;;;;;;10.95;9.10;;;1.40;97.70;;;;;;5027467;28;20448;-81
2022/03/07 07:46:25;;;;;;;11.18;8.63;;;1.40;97.70;;;;;;5030967;28;20021;-78
2022/03/07 07:48:51;;;;;;;10.30;8.75;;;1.40;98.00;;;;;;5037070;28;20502;-78
2022/03/07 07:51:16;;;;;;;11.70;9.52;;;1.50;97.50;;;;;;5036895;28;20095;-79
2022/03/07 07:53:42;;;;;;;9.20;8.30;;;1.50;96.90;;;;;;5036647;28;20022;-78
2022/03/07 07:56:08;;;;;;;11.40;8.43;;;1.50;97.20;;;;;;5031662;28;20108;-79
2022/03/07 07:58:34;;;;;;;13.70;9.60;;;1.50;96.90;;;;;;5035521;28;20018;-79
2022/03/07 08:01:00;;;;;;;11.02;9.30;;;1.40;97.00;;;;;;5045454;28;20162;-79
2022/03/07 08:03:25;;;;;;;10.98;9.80;;;1.30;97.20;;;;;;5034509;28;20071;-78
2022/03/07 08:05:51;;;;;;;12.45;10.35;;;1.20;97.60;;;;;;5055766;28;20037;-77
2022/03/07 08:08:17;;;;;;;11.95;8.60;;;1.50;97.50;;;;;;5032563;28;20021;-80
2022/03/07 08:10:43;;;;;;;11.30;9.98;;;1.80;97.40;;;;;;5052077;28;20427;-81
2022/03/07 08:13:08;;;;;;;17.05;9.63;;;2.00;96.20;;;;;;5024362;28;20022;-79
2022/03/07 08:15:34;;;;;;;12.70;9.75;;;1.90;96.00;;;;;;5041248;28;20474;-79
2022/03/07 08:18:00;;;;;;;12.48;10.52;;;2.00;96.10;;;;;;5041124;28;20083;-79
2022/03/07 08:20:27;;;;;;;10.88;9.13;;;2.20;94.90;;;;;;5037331;28;20025;-80
2022/03/07 08:22:54;;;;;;;9.32;8.43;;;2.10;94.70;;;;;;5035568;28;20018;-80
2022/03/07 08:25:20;;;;;;;12.75;8.75;;;2.40;94.10;;;;;;5044559;28;20022;-78
2022/03/07 08:27:46;;;;;;;11.55;8.93;;;2.60;93.50;;;;;;5036594;28;20025;-79
2022/03/07 08:30:13;;;;;;;11.68;8.88;;;2.70;93.10;;;;;;5038078;28;20041;-79
2022/03/07 08:32:42;;;;;;;9.88;8.88;;;2.80;93.10;;;;;;5033197;28;20100;-77
2022/03/07 08:35:10;;;;;;;11.75;8.98;;;2.80;93.20;;;;;;5044660;28;20025;-76
2022/03/07 08:37:37;;;;;;;11.65;9.80;;;2.80;93.00;;;;;;5042180;28;20061;-78
2022/03/07 08:40:07;;;;;;;11.35;9.60;;;2.80;92.60;;;;;;5027854;28;20025;-77
2022/03/07 08:42:34;;;;;;;10.63;8.70;;;2.80;92.40;;;;;;5032890;28;20030;-78
2022/03/07 08:45:00;;;;;;;13.10;9.73;;;2.70;93.00;;;;;;5031758;28;20035;-76
2022/03/07 08:47:26;;;;;;;13.93;10.15;;;2.60;93.30;;;;;;5021379;28;20148;-77
2022/03/07 08:49:52;;;;;;;10.18;9.15;;;2.70;93.00;;;;;;5044901;28;20022;-77
2022/03/07 08:52:17;;;;;;;9.32;8.38;;;2.70;92.90;;;;;;5023730;28;20018;-77
2022/03/07 08:54:44;;;;;;;11.35;9.23;;;2.70;92.10;;;;;;5032227;28;20067;-77
2022/03/07 08:57:11;;;;;;;12.48;9.65;;;2.60;91.60;;;;;;5053274;28;20492;-76
2022/03/07 08:59:37;;;;;;;14.15;9.18;;;2.70;91.70;;;;;;5036924;28;20026;-76
2022/03/07 09:02:03;;;;;;;10.75;9.23;;;2.70;91.00;;;;;;5026616;28;20547;-78
2022/03/07 09:04:29;;;;;;;11.23;9.52;;;2.80;90.90;;;;;;5033620;28;20029;-76
2022/03/07 09:06:55;;;;;;;10.40;9.40;;;2.80;90.30;;;;;;5025721;28;20659;-78
2022/03/07 09:09:20;;;;;;;11.88;8.95;;;3.00;90.40;;;;;;5036132;28;20385;-77
2022/03/07 09:11:47;;;;;;;10.10;8.90;;;3.20;89.90;;;;;;5035788;28;20022;-76
2022/03/07 09:14:13;;;;;;;12.65;9.88;;;3.00;88.60;;;;;;5034248;28;20108;-77
2022/03/07 09:16:39;;;;;;;10.23;9.20;;;3.00;88.50;;;;;;5050468;28;20108;-75
2022/03/07 09:19:04;;;;;;;11.32;9.50;;;3.00;88.80;;;;;;5037067;28;20511;-77
2022/03/07 09:21:30;;;;;;;11.02;9.75;;;3.20;88.60;;;;;;5027470;28;20048;-77
2022/03/07 09:23:56;;;;;;;10.18;8.82;;;3.30;88.10;;;;;;5029512;28;20116;-76
2022/03/07 09:26:21;;;;;;;10.95;9.57;;;3.40;87.30;;;;;;5034939;28;20025;-76
2022/03/07 09:28:47;;;;;;;10.30;8.20;;;3.40;87.30;;;;;;5034921;28;20043;-77
2022/03/07 09:31:13;;;;;;;10.35;8.63;;;3.40;86.30;;;;;;5029274;28;20109;-77
2022/03/07 09:33:39;;;;;;;10.85;9.52;;;3.20;86.50;;;;;;5040595;28;20113;-77
2022/03/07 09:36:05;;;;;;;10.55;9.05;;;3.30;87.00;;;;;;5037761;28;20033;-77
2022/03/07 09:38:31;;;;;;;10.23;9.10;;;3.40;86.80;;;;;;5059145;28;20099;-76
2022/03/07 09:40:57;;;;;;;11.50;9.93;;;3.70;84.50;;;;;;5048633;28;20025;-78
2022/03/07 09:43:23;;;;;;;10.75;9.73;;;4.00;84.20;;;;;;5064057;28;20026;-77
2022/03/07 09:45:49;;;;;;;10.57;9.48;;;4.10;84.30;;;;;;5032923;28;20091;-80
2022/03/07 09:48:15;;;;;;;11.50;8.77;;;4.10;85.20;;;;;;5038437;28;20030;-79
2022/03/07 09:50:42;;;;;;;10.80;9.70;;;4.30;84.30;;;;;;5034369;28;20275;-78
2022/03/07 09:53:08;;;;;;;11.30;9.82;;;4.20;85.20;;;;;;5051292;28;20500;-79
2022/03/07 09:55:35;;;;;;;11.18;10.07;;;4.10;85.00;;;;;;5052073;28;20053;-78
2022/03/07 09:58:01;;;;;;;10.88;9.77;;;4.00;85.60;;;;;;5048013;28;20501;-80
2022/03/07 10:00:27;;;;;;;14.50;10.57;;;4.00;85.00;;;;;;5025715;28;20018;-78
2022/03/07 10:03:00;;;;;;;12.32;9.73;;;4.00;86.20;;;;;;5049388;28;20019;-79
2022/03/07 10:05:32;;;;;;;10.85;9.55;;;4.30;85.80;;;;;;5053604;28;20022;-78
2022/03/07 10:07:58;;;;;;;13.20;9.80;;;4.40;84.00;;;;;;5036000;28;20029;-79
2022/03/07 10:10:33;;;;;;;10.75;9.27;;;4.40;84.30;;;;;;5050607;28;20033;-78
2022/03/07 10:13:06;;;;;;;12.50;10.45;;;4.60;83.60;;;;;;5059682;28;20041;-79
2022/03/07 10:15:32;;;;;;;11.60;10.40;;;4.20;84.10;;;;;;5058165;28;20035;-79
2022/03/07 10:17:57;;;;;;;11.00;10.00;;;3.90;84.70;;;;;;5049797;28;20033;-78
2022/03/07 10:20:25;;;;;;;11.25;10.15;;;3.90;85.60;;;;;;5038768;28;20041;-79
2022/03/07 10:22:53;;;;;;;12.93;10.40;;;3.80;85.70;;;;;;5054701;28;20017;-78
2022/03/07 10:25:27;;;;;;;10.10;9.15;;;3.90;83.40;;;;;;5045974;28;20073;-77
2022/03/07 10:27:54;;;;;;;14.48;9.88;;;4.00;82.40;;;;;;5038456;28;20496;-78
2022/03/07 10:30:23;;;;;;;13.18;9.88;;;4.00;82.10;;;;;;5043497;28;20031;-78
2022/03/07 10:33:00;;;;;;;12.23;11.00;;;4.00;81.50;;;;;;5064460;28;20535;-80
2022/03/07 10:35:34;;;;;;;13.00;9.55;;;3.90;82.10;;;;;;5047297;28;20064;-78
2022/03/07 10:38:06;;;;;;;10.77;9.68;;;4.10;81.70;;;;;;5042362;28;20060;-78
2022/03/07 10:40:33;;;;;;;11.35;10.15;;;4.20;81.40;;;;;;5039796;28;20032;-79
2022/03/07 10:43:00;;;;;;;11.13;9.73;;;4.20;80.90;;;;;;5032638;28;20018;-79
2022/03/07 10:45:28;;;;;;;12.95;10.30;;;4.40;81.10;;;;;;5053215;28;20490;-79
2022/03/07 10:47:56;;;;;;;10.35;9.20;;;4.50;81.60;;;;;;5045976;28;20113;-78
2022/03/07 10:50:23;;;;;;;11.00;9.90;;;4.30;81.00;;;;;;5035551;28;20469;-78
2022/03/07 10:52:51;;;;;;;10.35;9.25;;;4.50;81.00;;;;;;5052153;28;20021;-78
2022/03/07 10:55:23;;;;;;;12.45;9.27;;;4.70;80.80;;;;;;5034674;28;20025;-79
2022/03/07 10:57:48;;;;;;;13.10;10.30;;;4.60;80.30;;;;;;5053153;28;20021;-78
2022/03/07 11:00:17;;;;;;;11.13;9.95;;;4.60;80.50;;;;;;5036581;28;20174;-81
2022/03/07 11:02:47;;;;;;;10.07;8.65;;;4.50;80.50;;;;;;5049026;28;20116;-79
2022/03/07 11:05:14;;;;;;;10.98;9.40;;;4.60;80.60;;;;;;5037122;28;20026;-80
2022/03/07 11:07:43;;;;;;;10.02;8.85;;;4.50;80.30;;;;;;5047003;28;20040;-78
2022/03/07 11:10:11;;;;;;;11.25;9.77;;;4.60;80.30;;;;;;5038156;28;20022;-79
2022/03/07 11:12:37;;;;;;;11.60;10.07;;;4.60;79.80;;;;;;5050913;28;20109;-78
2022/03/07 11:15:12;;;;;;;12.23;9.77;;;4.50;79.80;;;;;;5028800;28;20033;-79
2022/03/07 11:17:40;;;;;;;12.13;9.45;;;4.50;80.20;;;;;;5051781;28;20026;-79
2022/03/07 11:20:07;;;;;;;10.50;9.50;;;4.50;80.20;;;;;;5032269;28;20029;-78
2022/03/07 11:22:34;;;;;;;10.85;9.75;;;4.60;79.80;;;;;;5049381;28;20105;-78
2022/03/07 11:25:01;;;;;;;9.82;8.82;;;4.80;79.10;;;;;;5051780;28;20112;-79
2022/03/07 11:27:27;;;;;;;10.80;9.70;;;5.00;78.70;;;;;;5051259;28;20104;-79
2022/03/07 11:29:55;;;;;;;10.77;9.68;;;5.30;76.80;;;;;;5036011;28;20088;-78
2022/03/07 11:32:20;;;;;;;10.75;9.65;;;5.50;75.70;;;;;;5046532;28;20057;-78
2022/03/07 11:35:00;;;;;;;10.73;9.40;;;5.50;74.70;;;;;;5033294;28;20021;-79
2022/03/07 11:37:31;;;;;;;10.43;9.25;;;5.50;75.10;;;;;;5036723;28;20608;-79
2022/03/07 11:39:58;;;;;;;10.90;9.80;;;5.50;75.20;;;;;;5035695;28;20021;-79
2022/03/07 11:42:37;;;;;;;11.43;10.18;;;5.70;74.70;;;;;;5034566;28;20025;-78
2022/03/07 11:45:09;;;;;;;11.57;10.43;;;5.90;74.40;;;;;;5035151;28;20108;-79
2022/03/07 11:47:40;;;;;;;10.57;9.48;;;6.00;73.70;;;;;;5035219;28;20087;-79
2022/03/07 11:50:06;;;;;;;;;;;6.30;73.40;;;;;;5035345;28;20045;-80
2022/03/07 11:52:32;;;;;;;10.90;9.75;;;6.10;72.40;;;;;;5051863;28;19913;-79
2022/03/07 11:55:03;;;;;;;10.65;9.55;;;5.90;73.10;;;;;;5029681;28;20092;-79
2022/03/07 11:57:37;;;;;;;11.98;9.25;;;6.20;72.70;;;;;;5048715;28;20017;-78
2022/03/07 12:00:26;;;;;;;10.60;9.50;;;6.40;71.40;;;;;;5026660;28;20550;-78
2022/03/07 12:02:54;;;;;;;11.55;10.27;;;6.30;71.50;;;;;;5027353;28;20030;-79
2022/03/07 12:05:38;;;;;;;10.68;9.68;;;6.30;71.60;;;;;;5047762;28;20409;-78
2022/03/07 12:08:18;;;;;;;10.80;9.68;;;6.10;71.20;;;;;;5051393;28;20025;-80
2022/03/07 12:10:59;;;;;;;10.77;9.68;;;6.00;71.30;;;;;;5052697;28;20033;-79
2022/03/07 12:13:26;;;;;;;10.07;8.70;;;6.10;71.70;;;;;;5051969;28;20021;-79
2022/03/07 12:15:57;;;;;;;10.93;9.85;;;5.90;70.30;;;;;;5034315;28;20355;-78
2022/03/07 12:18:24;;;;;;;10.65;9.35;;;5.50;71.40;;;;;;5042732;28;20029;-76
2022/03/07 12:20:55;;;;;;;10.18;9.05;;;5.50;71.40;;;;;;5047354;28;20030;-78
2022/03/07 12:23:23;;;;;;;10.88;9.75;;;5.70;70.80;;;;;;5025119;28;20083;-76
2022/03/07 12:26:12;;;;;;;10.75;9.70;;;5.70;70.90;;;;;;5023085;28;20030;-77
2022/03/07 12:28:47;;;;;;;10.00;9.07;;;5.70;70.90;;;;;;5025458;28;20041;-77
2022/03/07 12:31:13;;;;;;;12.00;9.32;;;5.50;71.90;;;;;;5047172;28;20762;-78
2022/03/07 12:33:42;;;;;;;12.30;9.93;;;5.50;71.90;;;;;;5052444;28;20024;-79
2022/03/07 12:36:10;;;;;;;11.23;8.95;;;5.90;70.50;;;;;;5033727;28;20030;-86
2022/03/07 12:38:49;;;;;;;9.93;8.93;;;5.80;70.00;;;;;;5052623;28;20017;-84
2022/03/07 12:41:18;;;;;;;9.98;8.98;;;5.80;69.90;;;;;;5035932;28;20108;-85
2022/03/07 12:43:46;;;;;;;12.23;11.02;;;5.70;70.10;;;;;;5043269;28;20030;-84